Nearby METAR Reports

 

KSJC - San Jose, California, USA
Distance from station: NE 9mi, 14km
Updated: Thu, 23-May-2024 5:53pm PDT
Few Clouds
Few Clouds
 Wind from N
Wind: N 15 mph, 24 km/h
Temperature: 72°F, 22°C
Dew Point: 45°F, 7°C
Humidity: 38%
Barometer: 29.88 inHg, 1011.9 hPa
Clouds: Few Clouds
Visibility: 10 miles, 16 km
Cloud details: Few Clouds 10000 ft
2024/05/24 00:53 KSJC 240053Z 35013KT 10SM FEW100 22/07 A2988 RMK AO2 SLP116 T02170072
KRHV - San Jose/Reid, California, USA
Distance from station: ENE 12mi, 19km
Updated: Thu, 23-May-2024 5:47pm PDT
Clear
Clear
 Wind from NW
Wind: NW 12 mph, 19 km/h
Temperature: 72°F, 22°C
Dew Point: 46°F, 8°C
Humidity: 41%
Barometer: 29.88 inHg, 1011.9 hPa
Clouds: Clear
Visibility: 10 miles, 16 km
2024/05/24 00:47 KRHV 240047Z 31010KT 10SM SKC 22/08 A2988
 
KPAO - Palo Alto, California, USA
Distance from station: NNW 14mi, 23km
Updated: Thu, 23-May-2024 5:47pm PDT
Clear
Clear
 Wind from NW
Wind: NW 20 mph, 31 km/h
Temperature: 66°F, 19°C
Dew Point: 43°F, 6°C
Humidity: 43%
Barometer: 29.88 inHg, 1011.9 hPa
Clouds: Clear
Visibility: 10 miles, 16 km
2024/05/24 00:47 KPAO 240047Z 32017KT 10SM SKC 19/06 A2988
KOAK - Oakland, California, USA
Distance from station: NNW 31mi, 50km
Updated: Thu, 23-May-2024 5:53pm PDT
Mostly cloudy
Mostly cloudy
 Wind from W
Wind: W 16 mph, 26 km/h
Temperature: 61°F, 16°C
Dew Point: 46°F, 8°C
Humidity: 59%
Barometer: 29.90 inHg, 1012.5 hPa
Clouds: Mostly cloudy
Visibility: 10 miles, 16 km
Cloud details: Mostly cloudy 20000 ft
2024/05/24 00:53 KOAK 240053Z 27014KT 10SM BKN200 16/08 A2990 RMK AO2 PK WND 26029/0040 SLP126 T01610078
 
KSQL - San Carlos Airpo, California, USA
Distance from station: NW 21mi, 34km
Updated: Thu, 23-May-2024 5:50pm PDT
Clear
Clear
 Wind from W
Wind: W 18 mph, 30 km/h, Gust: 28 mph, 44 km/h
Temperature: 63°F, 17°C
Dew Point: 45°F, 7°C
Humidity: 52%
Barometer: 29.89 inHg, 1012.2 hPa
Clouds: Clear
Visibility: 10 miles, 16 km
2024/05/24 00:50 KSQL 240050Z 26016G24KT 10SM CLR 17/07 A2989
KSFO - San Francisco, California, USA
Distance from station: NW 30mi, 49km
Updated: Thu, 23-May-2024 5:56pm PDT
Partly cloudy
Partly cloudy
 Wind from W
Wind: W 23 mph, 37 km/h, Gust: 33 mph, 54 km/h
Temperature: 61°F, 16°C
Dew Point: 45°F, 7°C
Humidity: 55%
Barometer: 29.90 inHg, 1012.5 hPa
Clouds: Partly cloudy
Visibility: 10 miles, 16 km
Cloud details: Few Clouds 1000 ft
Few Clouds 18000 ft
Partly cloudy 20000 ft
2024/05/24 00:56 KSFO 240056Z 27020G29KT 10SM FEW010 FEW180 SCT200 16/07 A2990 RMK AO2 PK WND 27031/0033 SLP124 T01560067 $
 
KE16 - San Martin, California, USA
Distance from station: ESE 27mi, 43km
Updated: Thu, 23-May-2024 6:15pm PDT
Clear
Clear
 Wind from ESE
Wind: ESE 14 mph, 22 km/h
Temperature: 68°F, 20°C
Dew Point: 46°F, 8°C
Humidity: 46%
Barometer: 29.89 inHg, 1012.2 hPa
Clouds: Clear
Visibility: 10 miles, 16 km
2024/05/24 01:15 KE16 240115Z AUTO 12012KT 10SM CLR 20/08 A2989 RMK AO2 PWINO PNO
KWVI - Watsonville, California, USA
Distance from station: SSE 27mi, 44km
Updated: Thu, 23-May-2024 6:19pm PDT
Mostly cloudy
Mostly cloudy
 Wind from SE
Wind: SE 13 mph, 20 km/h
Temperature: 57°F, 14°C
Dew Point: 48°F, 9°C
Humidity: 72%
Barometer: 29.93 inHg, 1013.5 hPa
Clouds: Mostly cloudy
Visibility: 9 miles, 14 km
Cloud details: Mostly cloudy 1100 ft
2024/05/24 01:19 KWVI 240119Z AUTO 13011KT 9SM BKN011 14/09 A2993 RMK AO2 T01390094
 
KHAF - Half Moon Bay, California, USA
Distance from station: WNW 31mi, 50km
Updated: Thu, 23-May-2024 6:15pm PDT
Haze, Clear
Haze, Clear
 Wind from NW
Wind: NW 10 mph, 17 km/h
Temperature: 54°F, 12°C
Dew Point: 48°F, 9°C
Humidity: 82%
Barometer: 29.95 inHg, 1014.2 hPa
Summary: Haze
Clouds: Clear
Visibility: 4 miles, 6 km
2024/05/24 01:15 KHAF 240115Z AUTO 31009KT 4SM HZ CLR 12/09 A2995 RMK AO2
KHWD - Hayward, California, USA
Distance from station: N 28mi, 44km
Updated: Thu, 23-May-2024 5:54pm PDT
Clear
Clear
 Wind from W
Wind: W 16 mph, 26 km/h
Temperature: 63°F, 17°C
Dew Point: 46°F, 8°C
Humidity: 56%
Barometer: 29.90 inHg, 1012.5 hPa
Clouds: Clear
Visibility: 10 miles, 16 km
2024/05/24 00:54 KHWD 240054Z 27014KT 10SM CLR 17/08 A2990 RMK AO2 SLP136 T01720083
 
KLVK - Livermore, California, USA
Distance from station: NNE 31mi, 51km
Updated: Thu, 23-May-2024 5:53pm PDT
Clear
Clear
 Wind from WNW
Wind: WNW 14 mph, 22 km/h
Temperature: 73°F, 23°C
Dew Point: 41°F, 5°C
Humidity: 31%
Barometer: 29.85 inHg, 1010.8 hPa
Clouds: Clear
Visibility: 10 miles, 16 km
2024/05/24 00:53 KLVK 240053Z 29012KT 10SM CLR 23/05 A2985 RMK AO2 SLP106 T02280050